Time;durP1;ratioP1;P1;durP2;ratioP2;P2;SDS_P1;SDS_P2;PMS_P1;PMS_P2;Temp;Humidity;BMP_temperature;BMP_pressure;BME280_temperature;BME280_humidity;BME280_pressure;Samples;Min_cycle;Max_cycle;Signal;HPM_P1;HPM_P2
2022/06/17 00:01:48;;;;;;;9.23;3.53;;;;;;;24.20;48.54;99066.69;5033245;28;20025;-49
2022/06/17 00:04:14;;;;;;;7.00;3.67;;;;;;;24.02;48.82;99070.84;4999121;28;20136;-49
2022/06/17 00:06:46;;;;;;;5.25;3.22;;;;;;;23.91;49.13;99080.88;5033152;28;20111;-49
2022/06/17 00:09:15;;;;;;;5.13;3.38;;;;;;;23.94;49.04;99074.94;5033211;28;20037;-48
2022/06/17 00:11:41;;;;;;;6.90;4.00;;;;;;;23.92;49.27;99075.22;5015220;28;20029;-48
2022/06/17 00:14:15;;;;;;;6.82;4.95;;;;;;;23.96;49.05;99080.03;5032932;28;20049;-48
2022/06/17 00:16:41;;;;;;;10.52;4.05;;;;;;;23.91;48.66;99083.53;5032982;28;20034;-49
2022/06/17 00:19:10;;;;;;;15.00;4.68;;;;;;;23.90;49.11;99079.25;5032856;28;20379;-49
2022/06/17 00:21:43;;;;;;;8.90;5.13;;;;;;;23.85;49.38;99085.44;5032888;28;20394;-48
2022/06/17 00:24:34;;;;;;;7.90;3.25;;;;;;;23.83;49.21;99087.59;5015369;28;20372;-49
2022/06/17 00:26:59;;;;;;;5.95;3.15;;;;;;;23.73;49.26;99088.44;5014989;28;20036;-48
2022/06/17 00:29:28;;;;;;;9.75;3.60;;;;;;;23.63;49.81;99091.19;5014885;28;20064;-49
2022/06/17 00:31:56;;;;;;;11.20;3.80;;;;;;;23.69;49.35;99089.28;5032681;28;20024;-49
2022/06/17 00:34:23;;;;;;;13.63;4.20;;;;;;;23.66;49.30;99087.13;5014867;28;20026;-49
2022/06/17 00:36:52;;;;;;;9.57;3.58;;;;;;;23.66;49.28;99090.63;5032775;28;20060;-48
2022/06/17 00:39:24;;;;;;;9.35;4.22;;;;;;;23.63;49.59;99093.06;5032424;28;20074;-49
2022/06/17 00:41:58;;;;;;;11.77;4.20;;;;;;;23.63;49.71;99091.19;5013999;28;20063;-47
2022/06/17 00:44:41;;;;;;;12.32;4.03;;;;;;;23.58;49.79;99088.50;5032465;28;20127;-47
2022/06/17 00:47:38;;;;;;;12.40;3.53;;;;;;;23.49;49.95;99093.66;5032442;28;20033;-48
2022/06/17 00:50:22;;;;;;;8.07;3.80;;;;;;;23.49;50.20;99100.91;5014530;28;20125;-49
2022/06/17 00:53:03;;;;;;;6.13;3.88;;;;;;;23.49;50.21;99099.00;5032983;28;20029;-49
2022/06/17 00:55:45;;;;;;;7.20;4.00;;;;;;;23.53;49.93;99097.38;5014558;28;20112;-47
2022/06/17 00:58:18;;;;;;;8.30;4.40;;;;;;;23.50;50.03;99091.78;5032168;28;20032;-47
2022/06/17 01:00:44;;;;;;;6.40;3.35;;;;;;;23.42;50.06;99105.75;5014341;28;20041;-47
2022/06/17 01:03:20;;;;;;;6.63;3.67;;;;;;;23.28;50.36;99103.66;5032144;28;20021;-47
2022/06/17 01:05:56;;;;;;;9.90;3.90;;;;;;;23.07;50.83;99105.59;5032167;28;20039;-47
2022/06/17 01:11:23;;;;;;;7.50;3.28;;;;;;;23.28;50.86;99106.34;5032629;28;20176;-47
2022/06/17 01:13:51;;;;;;;11.13;3.67;;;;;;;23.39;50.25;99103.63;5014053;28;20044;-48
2022/06/17 01:16:22;;;;;;;7.28;4.05;;;;;;;23.41;50.24;99104.94;5032043;28;20021;-47
2022/06/17 01:18:50;;;;;;;10.15;3.95;;;;;;;23.48;49.56;99108.13;5032070;28;20036;-48
2022/06/17 01:21:32;;;;;;;16.40;4.40;;;;;;;23.38;50.07;99112.72;5014094;28;20394;-47
2022/06/17 01:23:59;;;;;;;5.47;3.50;;;;;;;23.45;50.20;99118.59;5014203;28;20045;-47
2022/06/17 01:26:25;;;;;;;10.60;4.05;;;;;;;23.49;49.87;99117.75;5014047;28;20021;-47
2022/06/17 01:28:51;;;;;;;14.77;4.93;;;;;;;23.32;50.12;99118.13;5014049;28;20029;-47
2022/06/17 01:31:17;;;;;;;10.57;5.25;;;;;;;23.13;50.90;99117.88;5030442;28;20083;-47
2022/06/17 01:33:44;;;;;;;9.00;3.75;;;;;;;23.10;50.42;99121.13;5014058;28;20033;-47
2022/06/17 01:36:26;;;;;;;13.25;3.67;;;;;;;23.24;50.44;99120.53;5031644;28;20025;-47
2022/06/17 01:38:57;;;;;;;9.00;4.55;;;;;;;23.29;50.05;99115.97;5014024;28;20033;-47
2022/06/17 01:41:28;;;;;;;11.63;3.60;;;;;;;23.21;50.21;99113.84;5013967;28;20026;-47
2022/06/17 01:43:59;;;;;;;9.05;3.30;;;;;;;23.07;50.54;99113.63;5031968;28;20466;-48
2022/06/17 01:46:36;;;;;;;8.55;3.55;;;;;;;22.92;51.27;99113.66;5013945;28;20064;-49
2022/06/17 01:49:11;;;;;;;6.35;3.45;;;;;;;22.90;50.78;99105.88;5014007;28;20032;-49
2022/06/17 01:51:41;;;;;;;8.65;4.28;;;;;;;22.76;51.44;99109.38;5014268;28;20026;-49
2022/06/17 01:54:12;;;;;;;5.78;3.70;;;;;;;22.71;51.97;99108.31;5017920;28;20045;-48
2022/06/17 01:56:41;;;;;;;6.50;3.78;;;;;;;22.83;51.45;99107.22;5017890;28;20029;-49
2022/06/17 01:59:22;;;;;;;8.85;4.13;;;;;;;22.89;51.39;99108.81;5035516;28;20022;-49
2022/06/17 02:01:52;;;;;;;7.88;4.28;;;;;;;22.76;51.38;99110.19;5017739;28;20040;-49
2022/06/17 02:04:24;;;;;;;5.35;3.55;;;;;;;22.72;51.83;99109.13;5035462;28;20494;-50
2022/06/17 02:07:21;;;;;;;7.22;3.95;;;;;;;22.60;52.05;99101.38;5017728;28;20032;-50
2022/06/17 02:09:48;;;;;;;9.70;4.53;;;;;;;22.69;51.70;99109.66;5035414;28;20052;-49
2022/06/17 02:12:16;;;;;;;5.57;3.42;;;;;;;22.65;51.78;99104.03;5017476;28;20597;-49
2022/06/17 02:14:43;;;;;;;7.13;3.75;;;;;;;22.74;51.63;99110.47;5035058;28;20495;-49
2022/06/17 02:17:09;;;;;;;9.45;3.60;;;;;;;22.97;51.38;99112.81;5035241;28;20398;-48
2022/06/17 02:19:39;;;;;;;9.30;3.58;;;;;;;23.07;50.89;99115.50;5017337;28;20049;-49
2022/06/17 02:22:14;;;;;;;7.18;3.67;;;;;;;23.11;51.01;99128.06;5017315;28;20021;-49
2022/06/17 02:24:41;;;;;;;7.63;3.33;;;;;;;23.23;50.61;99130.44;5035066;28;20029;-48
2022/06/17 02:27:10;;;;;;;8.95;3.30;;;;;;;23.22;50.23;99128.88;5017195;28;20032;-49
2022/06/17 02:29:39;;;;;;;10.93;3.53;;;;;;;23.09;50.49;99126.75;5035006;28;20076;-49
2022/06/17 02:32:07;;;;;;;14.60;3.58;;;;;;;23.00;51.13;99131.00;5001055;28;20376;-49
2022/06/17 02:34:33;;;;;;;10.00;4.07;;;;;;;22.76;51.25;99130.78;5017074;28;20491;-49
2022/06/17 02:37:10;;;;;;;6.72;4.50;;;;;;;22.66;51.86;99134.28;5034777;28;20514;-49
2022/06/17 02:39:41;;;;;;;7.50;3.65;;;;;;;22.79;51.80;99127.56;5016953;28;20419;-49
2022/06/17 02:42:17;;;;;;;9.32;4.15;;;;;;;22.66;51.95;99134.28;5017133;28;20549;-49
2022/06/17 02:44:43;;;;;;;7.60;3.60;;;;;;;22.37;52.57;99129.47;5034771;28;20072;-49
2022/06/17 02:47:10;;;;;;;10.77;4.03;;;;;;;22.45;52.76;99136.94;5034646;28;20041;-49
2022/06/17 02:49:39;;;;;;;7.40;3.75;;;;;;;22.50;52.18;99138.84;5016828;28;20026;-49
2022/06/17 02:52:15;;;;;;;8.57;3.97;;;;;;;22.52;52.57;99142.84;5016751;28;20033;-49
2022/06/17 02:54:44;;;;;;;12.50;3.78;;;;;;;22.47;52.14;99136.69;5034594;28;20509;-48
2022/06/17 02:57:21;;;;;;;6.25;3.65;;;;;;;22.24;53.19;99146.84;5016717;28;20048;-49
2022/06/17 03:00:15;;;;;;;6.68;3.50;;;;;;;22.28;53.08;99142.56;5034485;28;20025;-48
2022/06/17 03:02:46;;;;;;;5.57;3.38;;;;;;;22.34;52.44;99140.69;5034438;28;20068;-49
2022/06/17 03:05:17;;;;;;;9.10;3.72;;;;;;;22.26;52.83;99143.91;5015705;28;20033;-49
2022/06/17 03:07:44;;;;;;;7.05;4.07;;;;;;;22.12;53.01;99147.06;5016791;28;20036;-49
2022/06/17 03:10:19;;;;;;;8.27;4.10;;;;;;;22.05;54.11;99157.19;5016356;28;20029;-49
2022/06/17 03:12:53;;;;;;;9.32;4.00;;;;;;;22.16;53.56;99151.88;5016507;28;20049;-49
2022/06/17 03:15:20;;;;;;;15.82;4.22;;;;;;;22.02;53.66;99159.59;5012833;28;20133;-49
2022/06/17 03:17:46;;;;;;;6.43;3.90;;;;;;;21.80;54.06;99154.47;5013036;28;20080;-49
2022/06/17 03:20:20;;;;;;;9.60;3.83;;;;;;;21.89;54.24;99155.53;5014213;28;20388;-48
2022/06/17 03:22:49;;;;;;;6.80;4.25;;;;;;;21.86;53.81;99156.09;5012985;28;20126;-49
2022/06/17 03:25:29;;;;;;;13.57;5.07;;;;;;;21.85;53.83;99163.31;5012841;28;20022;-49
2022/06/17 03:28:00;;;;;;;10.20;3.63;;;;;;;21.95;53.57;99165.19;5014218;28;20053;-49
2022/06/17 03:30:40;;;;;;;12.30;3.97;;;;;;;21.79;54.52;99171.56;5014184;28;20030;-49
2022/06/17 03:33:34;;;;;;;9.13;3.78;;;;;;;21.77;54.45;99168.34;5012821;28;20053;-49
2022/06/17 03:36:10;;;;;;;9.38;3.90;;;;;;;21.82;54.32;99168.38;5014009;28;20443;-49
2022/06/17 03:38:46;;;;;;;11.10;3.50;;;;;;;21.86;53.85;99172.91;5014017;28;20060;-49
2022/06/17 03:41:36;;;;;;;12.85;3.75;;;;;;;21.92;53.84;99173.75;5012552;28;20030;-49
2022/06/17 03:44:10;;;;;;;7.35;3.58;;;;;;;21.92;53.79;99177.22;4993224;28;20112;-50
2022/06/17 03:46:47;;;;;;;11.00;3.75;;;;;;;21.88;53.82;99178.00;5013833;28;20061;-48
2022/06/17 03:49:56;;;;;;;6.20;3.67;;;;;;;21.86;53.67;99182.81;5012490;28;20066;-50
2022/06/17 03:52:27;;;;;;;6.03;3.88;;;;;;;21.83;53.71;99183.31;5011618;28;20076;-49
2022/06/17 03:54:53;;;;;;;8.85;4.10;;;;;;;21.81;54.17;99182.78;5013648;28;20026;-50
2022/06/17 03:57:25;;;;;;;4.80;3.33;;;;;;;21.76;54.09;99183.56;5012278;28;20084;-49
2022/06/17 03:59:52;;;;;;;11.23;4.25;;;;;;;21.65;54.14;99189.94;5012149;28;20026;-49
2022/06/17 04:02:20;;;;;;;8.48;3.90;;;;;;;21.80;53.90;99189.19;5013458;28;20491;-49
2022/06/17 04:04:53;;;;;;;10.38;3.88;;;;;;;21.79;54.07;99192.91;4996015;28;20407;-49
2022/06/17 04:07:19;;;;;;;9.70;4.28;;;;;;;21.72;54.12;99207.31;5013441;28;20061;-48
2022/06/17 04:09:48;;;;;;;6.10;3.58;;;;;;;21.70;54.45;99206.78;5012064;28;20038;-48
2022/06/17 04:12:22;;;;;;;10.77;3.95;;;;;;;21.76;54.31;99209.50;5013545;28;20037;-49
2022/06/17 04:15:13;;;;;;;10.57;4.00;;;;;;;21.84;53.96;99217.81;5023092;28;20092;-48
2022/06/17 04:17:48;;;;;;;8.20;4.15;;;;;;;22.00;53.49;99217.88;5032943;28;20524;-48
2022/06/17 04:20:26;;;;;;;9.88;4.40;;;;;;;22.08;53.26;99225.38;5015166;28;20060;-47
2022/06/17 04:23:01;;;;;;;10.50;4.60;;;;;;;22.24;53.18;99226.25;5032930;28;20022;-48
2022/06/17 04:25:34;;;;;;;10.48;3.70;;;;;;;22.46;52.47;99226.84;5032864;28;20556;-50
2022/06/17 04:28:06;;;;;;;12.32;4.22;;;;;;;22.80;51.63;99222.84;5015052;28;20092;-48
2022/06/17 04:30:48;;;;;;;10.38;4.78;;;;;;;22.98;51.12;99219.63;5032727;28;20068;-49
2022/06/17 04:33:32;;;;;;;8.73;3.45;;;;;;;23.15;50.43;99227.41;5032707;28;20026;-48
2022/06/17 04:36:03;;;;;;;9.93;3.50;;;;;;;23.37;50.12;99229.78;5014848;28;20093;-49
2022/06/17 04:38:33;;;;;;;9.95;4.25;;;;;;;23.47;49.38;99215.56;5032581;28;20022;-49
2022/06/17 04:41:04;;;;;;;8.05;3.78;;;;;;;23.59;49.33;99216.06;5032416;28;20438;-49
2022/06/17 04:43:36;;;;;;;7.28;4.20;;;;;;;23.89;49.08;99217.06;5032561;28;20060;-49
2022/06/17 04:46:08;;;;;;;11.23;4.18;;;;;;;23.97;48.61;99216.47;5032464;28;20087;-48
2022/06/17 04:48:35;;;;;;;10.45;3.90;;;;;;;24.23;48.18;99213.69;5014652;28;20498;-48
2022/06/17 04:51:02;;;;;;;9.45;4.22;;;;;;;24.39;47.54;99215.19;5014561;28;20029;-47
2022/06/17 04:53:31;;;;;;;8.07;4.05;;;;;;;24.37;47.17;99211.97;5032342;28;20022;-48
2022/06/17 04:55:58;;;;;;;12.57;4.20;;;;;;;24.61;47.15;99206.75;5032267;28;20102;-47
2022/06/17 04:58:27;;;;;;;11.48;4.40;;;;;;;24.72;46.42;99202.88;5032265;28;20013;-47
2022/06/17 05:00:55;;;;;;;13.68;4.53;;;;;;;24.78;46.49;99198.28;5032074;28;20021;-48
2022/06/17 05:03:25;;;;;;;7.82;3.83;;;;;;;25.18;45.37;99203.56;5014458;28;20025;-47
2022/06/17 05:05:51;;;;;;;10.75;3.78;;;;;;;25.47;44.51;99198.16;5032137;28;20037;-47
2022/06/17 05:08:32;;;;;;;12.70;4.30;;;;;;;25.80;43.88;99195.63;5032087;28;20108;-49
2022/06/17 05:11:14;;;;;;;15.60;4.22;;;;;;;26.16;43.41;99198.69;5032108;28;20091;-48
2022/06/17 05:14:23;;;;;;;21.08;4.97;;;;;;;26.78;42.56;99198.53;5031683;28;20108;-49
2022/06/17 05:16:48;;;;;;;12.32;4.60;;;;;;;27.39;40.69;99194.00;5006302;28;20034;-49
2022/06/17 05:19:14;;;;;;;14.95;4.32;;;;;;;27.97;40.02;99189.88;5030557;28;20084;-48
2022/06/17 05:21:40;;;;;;;10.02;4.15;;;;;;;28.60;38.91;99188.19;5014402;28;20087;-47
2022/06/17 05:24:08;;;;;;;7.95;3.80;;;;;;;29.28;37.85;99186.19;5014057;28;20025;-47
2022/06/17 05:26:34;;;;;;;15.35;4.65;;;;;;;29.91;36.57;99190.69;5013711;28;20018;-47
2022/06/17 05:29:00;;;;;;;12.75;3.80;;;;;;;30.45;35.35;99200.09;5031881;28;20027;-49
2022/06/17 05:31:27;;;;;;;12.82;4.30;;;;;;;30.89;34.49;99196.53;5031746;28;20061;-48
2022/06/17 05:33:53;;;;;;;14.43;3.65;;;;;;;31.22;33.90;99196.75;5014034;28;20021;-48
2022/06/17 05:36:19;;;;;;;14.73;4.10;;;;;;;31.65;33.78;99196.59;5013913;28;20032;-49
2022/06/17 05:38:45;;;;;;;14.63;3.30;;;;;;;31.99;32.70;99202.09;5031734;28;20076;-47
2022/06/17 05:41:19;;;;;;;22.33;4.40;;;;;;;32.18;32.57;99197.03;5031610;28;20439;-49
2022/06/17 05:43:44;;;;;;;46.67;7.93;;;;;;;32.50;32.03;99200.13;5031755;28;20034;-49
2022/06/17 05:46:10;;;;;;;18.77;4.15;;;;;;;32.94;31.67;99205.13;5013927;28;20105;-49
2022/06/17 05:48:36;;;;;;;29.65;4.40;;;;;;;33.48;30.70;99207.69;5031644;28;20391;-49
2022/06/17 05:51:01;;;;;;;16.15;4.32;;;;;;;33.91;30.17;99206.34;5031587;28;20096;-48
2022/06/17 05:53:27;;;;;;;13.25;3.65;;;;;;;33.70;30.04;99209.19;5031588;28;20117;-49
2022/06/17 05:55:54;;;;;;;11.05;4.07;;;;;;;33.76;29.96;99207.81;5031532;28;20084;-47
2022/06/17 05:58:20;;;;;;;14.85;4.38;;;;;;;33.96;29.87;99210.75;5031511;28;20032;-48
2022/06/17 06:00:46;;;;;;;10.82;3.70;;;;;;;34.16;29.64;99212.53;5031367;28;20024;-47
2022/06/17 06:03:31;;;;;;;15.93;3.65;;;;;;;34.59;29.29;99211.00;5013771;28;20030;-48
2022/06/17 06:05:57;;;;;;;33.22;4.68;;;;;;;34.86;28.18;99213.28;5013750;28;20037;-47
2022/06/17 06:08:22;;;;;;;13.35;3.90;;;;;;;34.92;27.77;99220.06;5013700;28;20037;-48
2022/06/17 06:10:49;;;;;;;21.20;4.13;;;;;;;35.20;27.63;99225.47;5013641;28;20033;-47
2022/06/17 06:13:18;;;;;;;13.63;3.85;;;;;;;35.28;27.02;99223.72;5031476;28;20029;-47
2022/06/17 06:15:46;;;;;;;13.05;4.28;;;;;;;35.72;26.62;99226.34;5030879;28;20050;-48
2022/06/17 06:18:25;;;;;;;12.27;3.28;;;;;;;36.37;25.48;99228.50;5031300;28;20075;-48
2022/06/17 06:20:51;;;;;;;9.15;3.30;;;;;;;36.97;24.58;99233.56;5031167;28;20034;-48
2022/06/17 06:23:17;;;;;;;10.15;3.97;;;;;;;36.85;24.55;99233.72;5031348;28;20018;-48
2022/06/17 06:25:43;;;;;;;13.88;3.53;;;;;;;36.92;24.64;99240.09;5031291;28;20032;-48
2022/06/17 06:28:19;;;;;;;8.73;3.35;;;;;;;37.63;24.08;99245.25;5031288;28;20395;-48
2022/06/17 06:30:54;;;;;;;9.38;3.58;;;;;;;38.21;23.40;99232.31;5031282;28;20041;-49
2022/06/17 06:33:20;;;;;;;11.20;3.38;;;;;;;38.34;22.78;99236.41;5013498;28;20032;-48
2022/06/17 06:35:46;;;;;;;11.77;3.75;;;;;;;38.53;22.01;99236.25;5031125;28;20025;-48
2022/06/17 06:38:12;;;;;;;9.65;3.03;;;;;;;39.01;21.96;99241.06;5031269;28;20028;-48
2022/06/17 06:40:38;;;;;;;9.18;3.28;;;;;;;39.48;21.70;99236.78;5034730;28;20032;-48
2022/06/17 06:43:15;;;;;;;11.25;3.95;;;;;;;39.85;21.01;99230.31;5034649;28;20029;-48
2022/06/17 06:45:42;;;;;;;21.02;4.07;;;;;;;39.98;20.89;99230.78;5034703;28;20029;-48
2022/06/17 06:48:10;;;;;;;13.98;3.78;;;;;;;40.09;20.92;99226.13;5034755;28;20022;-48
2022/06/17 06:50:37;;;;;;;12.88;3.63;;;;;;;40.34;20.50;99225.47;5034674;28;20390;-48
2022/06/17 06:53:04;;;;;;;20.08;3.53;;;;;;;40.44;20.36;99230.19;5016819;28;20056;-48
2022/06/17 06:55:31;;;;;;;14.30;4.28;;;;;;;40.51;20.31;99234.97;5034758;28;20132;-48
2022/06/17 06:58:03;;;;;;;17.08;3.70;;;;;;;40.70;20.34;99237.34;5016664;28;20049;-49
2022/06/17 07:00:33;;;;;;;14.60;3.97;;;;;;;41.12;19.83;99235.81;5016610;28;20044;-49
2022/06/17 07:02:59;;;;;;;15.00;3.72;;;;;;;41.40;19.56;99231.53;5016608;28;20053;-49
2022/06/17 07:05:25;;;;;;;11.15;3.67;;;;;;;41.66;19.15;99221.28;5034340;28;20026;-49
2022/06/17 07:07:51;;;;;;;12.10;3.70;;;;;;;41.46;19.40;99232.69;5034277;28;20506;-48
2022/06/17 07:10:25;;;;;;;15.75;3.80;;;;;;;41.14;19.77;99229.94;5034326;28;20560;-48
2022/06/17 07:12:52;;;;;;;8.52;3.92;;;;;;;40.52;20.23;99222.75;5016295;28;20037;-48
2022/06/17 07:15:18;;;;;;;14.93;3.33;;;;;;;40.19;20.50;99226.56;5016170;28;20084;-49
2022/06/17 07:17:55;;;;;;;13.45;3.70;;;;;;;39.92;20.98;99221.34;5034146;28;20029;-49
2022/06/17 07:20:23;;;;;;;13.07;3.35;;;;;;;39.95;20.69;99226.06;5033956;28;20103;-49
2022/06/17 07:22:49;;;;;;;16.73;4.15;;;;;;;40.21;20.72;99227.75;5034018;28;20514;-50
2022/06/17 07:25:15;;;;;;;10.18;3.75;;;;;;;40.40;20.36;99226.66;5016147;28;20399;-50
2022/06/17 07:27:41;;;;;;;20.42;3.90;;;;;;;40.59;19.88;99231.03;5033946;28;20033;-50
2022/06/17 07:30:07;;;;;;;11.13;3.33;;;;;;;40.73;19.99;99233.81;5033912;28;20071;-50
2022/06/17 07:32:33;;;;;;;13.43;4.03;;;;;;;40.72;19.92;99226.72;5016020;28;20029;-50
2022/06/17 07:34:59;;;;;;;15.55;3.90;;;;;;;39.99;20.77;99226.88;5016010;28;20114;-49
2022/06/17 07:40:09;;;;;;;12.60;3.80;;;;;;;38.89;21.97;99222.09;5033693;28;20048;-50
2022/06/17 07:42:38;;;;;;;26.15;4.63;;;;;;;38.95;22.01;99226.06;5033644;28;20026;-49
2022/06/17 07:45:14;;;;;;;26.52;5.05;;;;;;;38.89;22.27;99224.84;5033581;28;20026;-49
2022/06/17 07:47:42;;;;;;;23.40;4.57;;;;;;;39.70;21.29;99220.41;5033622;28;20120;-49
2022/06/17 07:50:12;;;;;;;20.35;4.22;;;;;;;40.48;20.75;99208.22;5033098;28;20064;-48
2022/06/17 07:52:38;;;;;;;23.52;4.75;;;;;;;41.04;19.92;99209.47;5015701;28;20462;-49
2022/06/17 07:55:05;;;;;;;20.88;4.05;;;;;;;41.72;19.46;99214.16;5015574;28;20021;-49
2022/06/17 07:57:30;;;;;;;38.28;5.30;;;;;;;42.52;18.38;99203.59;5033294;28;20029;-50
2022/06/17 07:59:56;;;;;;;14.30;4.10;;;;;;;42.75;17.89;99198.31;5015434;28;20486;-53
2022/06/17 08:02:22;;;;;;;59.47;6.40;;;;;;;43.02;17.93;99200.47;5033295;28;20025;-52
2022/06/17 08:04:48;;;;;;;18.73;4.18;;;;;;;43.49;17.47;99198.09;5033210;28;20017;-51
2022/06/17 08:07:14;;;;;;;68.85;8.27;;;;;;;43.95;17.52;99201.53;5015361;28;20446;-52
2022/06/17 08:09:40;;;;;;;5.35;3.22;;;;;;;44.67;16.19;99187.53;5033378;28;20043;-53
2022/06/17 08:12:08;;;;;;;10.57;4.70;;;;;;;44.82;16.00;99183.31;5033083;28;20026;-52
2022/06/17 08:14:35;;;;;;;13.43;3.70;;;;;;;45.32;15.57;99184.50;5032785;28;20123;-52
2022/06/17 08:17:04;;;;;;;40.22;6.03;;;;;;;45.31;15.67;99174.59;5032932;28;20099;-52
2022/06/17 08:19:29;;;;;;;38.28;5.35;;;;;;;45.72;15.81;99169.88;5032841;28;20033;-53
2022/06/17 08:21:55;;;;;;;10.57;3.65;;;;;;;46.05;15.28;99176.34;5032906;28;20116;-53
2022/06/17 08:24:21;;;;;;;26.35;3.97;;;;;;;46.23;15.22;99168.38;5031566;28;20060;-53
2022/06/17 08:26:46;;;;;;;15.18;3.45;;;;;;;46.65;14.89;99167.84;5015006;28;20047;-52
2022/06/17 08:29:12;;;;;;;17.45;3.50;;;;;;;46.61;14.64;99162.38;5032789;28;20025;-51
2022/06/17 08:31:38;;;;;;;14.88;3.83;;;;;;;46.03;15.00;99162.13;5032730;28;20075;-51
2022/06/17 08:34:04;;;;;;;25.27;3.63;;;;;;;46.05;15.01;99159.69;5032764;28;20422;-52
2022/06/17 08:36:30;;;;;;;16.83;3.30;;;;;;;46.51;14.88;99157.88;5032651;28;20032;-52
2022/06/17 08:39:06;;;;;;;51.60;5.70;;;;;;;46.78;14.45;99149.25;5014786;28;20026;-52
2022/06/17 08:41:35;;;;;;;75.60;7.85;;;;;;;46.90;14.45;99149.78;5014674;28;20029;-52
2022/06/17 08:44:19;;;;;;;25.75;4.15;;;;;;;47.16;14.44;99153.47;5014816;28;20041;-50
2022/06/17 08:46:54;;;;;;;18.10;3.45;;;;;;;47.24;14.15;99156.84;5014724;28;20045;-50
2022/06/17 08:49:40;;;;;;;11.45;3.00;;;;;;;46.97;14.32;99153.16;5032471;28;20029;-53
2022/06/17 08:52:17;;;;;;;15.00;3.65;;;;;;;46.61;14.62;99153.25;5032413;28;20099;-53
2022/06/17 08:55:05;;;;;;;25.63;4.78;;;;;;;46.79;14.78;99150.03;5032686;28;20060;-53
2022/06/17 08:57:54;;;;;;;65.68;8.40;;;;;;;47.42;14.32;99146.78;5032362;28;20083;-53
2022/06/17 09:00:48;;;;;;;13.60;3.45;;;;;;;47.45;14.21;99145.13;5014401;28;20026;-53
2022/06/17 09:03:32;;;;;;;38.15;5.65;;;;;;;47.12;14.80;99144.44;5031696;28;20034;-51
2022/06/17 09:06:18;;;;;;;16.98;4.82;;;;;;;46.70;14.80;99135.97;5014445;28;20029;-53
2022/06/17 09:09:37;;;;;;;25.13;5.20;;;;;;;47.27;14.51;99137.31;5032184;28;20040;-54
2022/06/17 09:12:16;;;;;;;21.85;3.60;;;;;;;47.26;14.29;99138.50;4935757;29;20062;-53
2022/06/17 09:15:17;;;;;;;11.75;3.03;;;;;;;47.24;14.02;99134.63;4951585;29;20052;-53
2022/06/17 09:18:02;;;;;;;21.40;3.60;;;;;;;47.64;14.25;99143.44;4951746;29;20472;-52
2022/06/17 09:20:36;;;;;;;16.38;3.95;;;;;;;48.00;13.20;99142.38;4951554;29;20051;-53
2022/06/17 09:23:05;;;;;;;10.93;3.67;;;;;;;48.29;13.45;99141.50;4935702;29;20061;-51
2022/06/17 09:25:46;;;;;;;18.67;3.88;;;;;;;48.18;13.04;99147.41;4935575;29;20488;-53
2022/06/17 09:28:29;;;;;;;13.27;3.58;;;;;;;48.03;13.72;99149.06;4935546;29;20045;-52
2022/06/17 09:31:04;;;;;;;11.35;3.45;;;;;;;47.67;13.90;99150.88;4951635;29;20085;-51
2022/06/17 09:34:19;;;;;;;12.77;3.15;;;;;;;47.52;13.92;99164.41;4935531;29;20031;-51
2022/06/17 09:36:56;;;;;;;12.45;3.47;;;;;;;47.74;13.42;99161.81;4943635;29;20151;-53
2022/06/17 09:39:30;;;;;;;15.02;3.47;;;;;;;47.65;13.60;99158.88;4951580;29;20043;-52
2022/06/17 09:42:21;;;;;;;12.57;3.42;;;;;;;47.42;13.90;99162.69;4954190;28;20102;-53
2022/06/17 09:45:05;;;;;;;21.02;4.43;;;;;;;47.24;13.98;99168.75;5031742;28;20022;-53
2022/06/17 09:47:35;;;;;;;17.33;3.70;;;;;;;47.16;13.59;99172.91;5031677;28;20033;-52
2022/06/17 09:50:29;;;;;;;22.92;3.67;;;;;;;47.25;13.64;99170.31;5013908;28;20030;-53
2022/06/17 09:53:24;;;;;;;12.43;3.63;;;;;;;47.45;13.52;99178.50;5031636;28;20406;-53
2022/06/17 09:55:57;;;;;;;14.70;3.08;;;;;;;47.14;13.74;99164.22;5024324;28;20098;-53
2022/06/17 09:58:38;;;;;;;15.10;3.30;;;;;;;47.02;13.68;99165.72;5031649;28;20402;-53
2022/06/17 10:01:04;;;;;;;23.23;3.65;;;;;;;47.37;13.62;99171.56;5014207;28;20399;-53
2022/06/17 10:03:33;;;;;;;18.73;3.90;;;;;;;47.06;13.50;99171.97;5031456;28;20056;-53
2022/06/17 10:06:29;;;;;;;12.90;3.25;;;;;;;47.07;13.74;99173.56;5013717;28;20022;-52
2022/06/17 10:09:19;;;;;;;8.80;2.50;;;;;;;46.79;13.32;99186.16;5013806;28;20087;-50
2022/06/17 10:12:07;;;;;;;10.55;2.80;;;;;;;46.63;13.29;99179.38;5031357;28;20036;-51
2022/06/17 10:14:48;;;;;;;11.60;3.78;;;;;;;46.82;13.16;99185.31;5034556;28;20050;-53
2022/06/17 10:20:56;;;;;;;15.93;3.80;;;;;;;47.19;12.84;99167.28;5035350;28;20072;-52
2022/06/17 10:23:46;;;;;;;15.70;3.13;;;;;;;47.38;12.89;99167.59;5035256;28;20029;-52
2022/06/17 10:26:33;;;;;;;12.80;2.97;;;;;;;46.80;12.99;99173.84;5017335;28;20033;-52
2022/06/17 10:29:17;;;;;;;22.65;3.95;;;;;;;46.93;12.90;99171.94;5035176;28;20437;-53
2022/06/17 10:31:46;;;;;;;19.73;4.10;;;;;;;46.98;12.77;99167.81;5035033;28;20103;-52
2022/06/17 10:34:22;;;;;;;9.48;2.75;;;;;;;46.96;12.76;99165.47;5035245;28;20029;-53
2022/06/17 10:36:52;;;;;;;14.25;2.72;;;;;;;47.00;13.23;99157.81;5035126;28;20037;-53
2022/06/17 10:39:21;;;;;;;7.30;2.50;;;;;;;47.47;13.24;99158.59;5035113;28;20139;-53
2022/06/17 10:41:47;;;;;;;11.23;3.05;;;;;;;47.50;12.97;99154.94;5034742;28;20021;-51
2022/06/17 10:44:18;;;;;;;12.18;2.80;;;;;;;47.26;12.95;99152.41;5034681;28;20021;-52
2022/06/17 10:46:54;;;;;;;19.10;3.45;;;;;;;47.35;12.95;99141.44;5034560;28;20064;-53
2022/06/17 10:49:36;;;;;;;15.40;4.13;;;;;;;47.42;12.49;99138.44;5017002;28;20032;-52
2022/06/17 10:52:11;;;;;;;10.27;3.15;;;;;;;47.59;12.39;99141.19;5016941;28;20087;-52
2022/06/17 10:54:38;;;;;;;27.25;17.02;;;;;;;47.58;12.42;99140.41;5016821;28;20113;-52
2022/06/17 10:57:25;;;;;;;189.43;168.80;;;;;;;47.49;12.63;99139.47;5034501;28;20028;-53
2022/06/17 10:59:51;;;;;;;135.82;67.10;;;;;;;47.70;12.37;99138.88;5034420;28;20256;-52
2022/06/17 11:02:25;;;;;;;42.05;19.23;;;;;;;47.71;12.41;99131.28;5034492;28;20116;-53
2022/06/17 11:04:56;;;;;;;31.95;12.88;;;;;;;47.77;12.12;99133.06;5034405;28;20025;-53
2022/06/17 11:07:48;;;;;;;20.15;12.20;;;;;;;47.35;12.65;99129.53;5034319;28;20442;-53
2022/06/17 11:10:13;;;;;;;18.95;9.90;;;;;;;47.24;12.50;99135.41;5034348;28;20025;-53
2022/06/17 11:12:43;;;;;;;14.02;6.63;;;;;;;46.79;13.22;99127.81;5034178;28;20032;-53
2022/06/17 11:15:29;;;;;;;20.33;8.30;;;;;;;46.47;13.23;99143.28;5012896;28;20111;-53
2022/06/17 11:18:00;;;;;;;15.65;5.07;;;;;;;46.33;13.12;99135.28;5014381;28;20026;-52
2022/06/17 11:20:29;;;;;;;16.92;3.78;;;;;;;46.54;12.87;99132.00;5014289;28;20186;-53
2022/06/17 11:23:20;;;;;;;11.40;3.40;;;;;;;46.99;12.55;99125.72;5014340;28;20054;-53
2022/06/17 11:25:46;;;;;;;14.77;4.53;;;;;;;47.19;12.60;99122.81;5013517;28;20033;-52
2022/06/17 11:28:18;;;;;;;24.02;5.53;;;;;;;47.24;12.73;99117.94;5014155;28;20033;-53
2022/06/17 11:30:56;;;;;;;11.43;3.17;;;;;;;47.02;13.20;99122.03;5014161;28;20037;-51
2022/06/17 11:33:24;;;;;;;12.18;3.30;;;;;;;46.99;12.58;99117.38;5012871;28;20105;-51
2022/06/17 11:36:01;;;;;;;12.00;2.95;;;;;;;46.60;12.83;99127.47;5014115;28;20036;-51
2022/06/17 11:38:29;;;;;;;18.40;3.13;;;;;;;46.41;13.06;99128.34;5012799;28;20025;-52
2022/06/17 11:40:56;;;;;;;19.20;4.00;;;;;;;46.67;12.97;99118.19;5013898;28;20026;-52
2022/06/17 11:50:19;;;;;;;14.85;3.40;;;;;;;46.94;13.16;99097.69;4993751;28;20116;-52
2022/06/17 11:52:47;;;;;;;12.05;2.90;;;;;;;46.98;13.26;99101.91;5013833;28;20030;-52
2022/06/17 11:55:14;;;;;;;16.65;2.53;;;;;;;47.08;13.22;99105.63;5013651;28;20022;-52
2022/06/17 11:57:42;;;;;;;9.38;2.97;;;;;;;47.04;12.80;99107.72;5012464;28;20108;-51
2022/06/17 12:00:40;;;;;;;12.65;2.08;;;;;;;46.54;12.88;99100.66;5012225;28;20021;-51
2022/06/17 12:03:08;;;;;;;14.80;3.22;;;;;;;46.19;12.98;99095.53;5013666;28;20093;-52
2022/06/17 12:22:35;;;;;;;15.15;2.22;;;;;;;46.17;12.69;99061.88;4953070;29;20054;-54
2022/06/17 12:25:26;;;;;;;15.80;2.92;;;;;;;46.38;12.21;99068.09;4953657;29;20509;-54
2022/06/17 12:28:04;;;;;;;9.88;2.47;;;;;;;46.69;12.03;99070.50;4955165;28;20390;-55